createdAt,value
2023-01-30T00:01:17.937Z,46.42
2023-01-30T00:03:44.869Z,51.75
2023-01-30T00:06:12.490Z,50.47
2023-01-30T00:08:39.429Z,47.88
2023-01-30T00:11:11.666Z,55.00
2023-01-30T00:13:39.167Z,48.30
2023-01-30T00:16:06.659Z,52.20
2023-01-30T00:18:33.356Z,50.38
2023-01-30T00:21:02.456Z,52.58
2023-01-30T00:23:30.392Z,50.75
2023-01-30T00:25:57.294Z,47.33
2023-01-30T00:28:24.351Z,51.55
2023-01-30T00:30:52.855Z,49.08
2023-01-30T00:33:21.142Z,53.58
2023-01-30T00:35:50.046Z,52.85
2023-01-30T00:38:17.627Z,52.40
2023-01-30T00:40:44.712Z,51.65
2023-01-30T00:43:35.016Z,50.55
2023-01-30T00:46:23.233Z,52.35
2023-01-30T00:48:50.045Z,48.83
2023-01-30T00:51:16.729Z,50.42
2023-01-30T00:53:43.401Z,50.58
2023-01-30T00:56:10.080Z,52.72
2023-01-30T00:58:36.850Z,54.60
2023-01-30T01:01:03.747Z,53.38
2023-01-30T01:03:30.518Z,57.97
2023-01-30T01:05:57.321Z,54.60
2023-01-30T01:08:24.030Z,51.83
2023-01-30T01:10:50.670Z,49.28
2023-01-30T01:13:17.346Z,53.35
2023-01-30T01:15:44.028Z,46.83
2023-01-30T01:18:10.682Z,54.22
2023-01-30T01:20:37.366Z,46.72
2023-01-30T01:23:04.039Z,55.03
2023-01-30T01:25:30.911Z,53.55
2023-01-30T01:27:57.669Z,48.53
2023-01-30T01:30:24.520Z,59.53
2023-01-30T01:32:51.243Z,54.25
2023-01-30T01:35:20.060Z,52.65
2023-01-30T01:37:47.219Z,49.92
2023-01-30T01:40:37.681Z,52.85
2023-01-30T01:43:24.372Z,50.65
2023-01-30T01:46:00.736Z,54.92
2023-01-30T01:48:41.243Z,56.23
2023-01-30T01:51:28.728Z,55.78
2023-01-30T01:54:16.903Z,48.53
2023-01-30T01:56:47.158Z,49.53
2023-01-30T01:59:37.723Z,51.13
2023-01-30T02:02:08.836Z,47.47
2023-01-30T02:04:56.654Z,53.47
2023-01-30T02:07:23.519Z,53.53
2023-01-30T02:09:51.537Z,51.35
2023-01-30T02:12:20.098Z,54.97
2023-01-30T02:14:48.177Z,55.67
2023-01-30T02:17:14.895Z,64.50
2023-01-30T02:20:14.714Z,57.53
2023-01-30T02:23:00.547Z,62.72
2023-01-30T02:25:36.082Z,60.67
2023-01-30T02:28:05.569Z,63.10
2023-01-30T02:31:03.079Z,70.95
2023-01-30T02:33:39.521Z,63.20
2023-01-30T02:36:19.949Z,55.60
2023-01-30T02:38:49.307Z,53.45
2023-01-30T02:41:49.575Z,55.90
2023-01-30T02:44:40.252Z,59.83
2023-01-30T02:47:19.151Z,56.67
2023-01-30T02:49:50.060Z,59.67
2023-01-30T02:52:18.415Z,52.58
2023-01-30T02:54:45.867Z,49.95
2023-01-30T02:57:24.017Z,56.58
2023-01-30T03:00:01.362Z,50.85
2023-01-30T03:02:41.180Z,69.53
2023-01-30T03:05:35.544Z,49.47
2023-01-30T03:08:33.217Z,48.97
2023-01-30T03:11:04.778Z,46.95
2023-01-30T03:13:42.739Z,50.38
2023-01-30T03:16:28.262Z,49.63
2023-01-30T03:18:55.127Z,50.03
2023-01-30T03:21:21.787Z,52.95
2023-01-30T03:23:52.153Z,42.28
2023-01-30T03:26:24.944Z,40.58
2023-01-30T03:28:53.007Z,40.13
2023-01-30T03:31:20.193Z,48.97
2023-01-30T03:33:46.946Z,39.63
2023-01-30T03:36:13.986Z,41.92
2023-01-30T03:38:40.873Z,37.97
2023-01-30T03:41:07.647Z,32.50
2023-01-30T03:43:35.401Z,43.10
2023-01-30T03:46:05.026Z,46.17
2023-01-30T03:48:31.918Z,42.83
2023-01-30T03:50:59.028Z,46.08
2023-01-30T03:53:25.688Z,42.40
2023-01-30T03:55:52.334Z,42.65
2023-01-30T03:58:24.589Z,42.30
2023-01-30T04:00:51.533Z,37.38
2023-01-30T04:03:18.281Z,39.33
2023-01-30T04:05:45.001Z,45.05
2023-01-30T04:08:12.713Z,33.58
2023-01-30T04:10:39.405Z,44.15
2023-01-30T04:13:06.326Z,48.05
2023-01-30T04:15:33.424Z,56.58
2023-01-30T04:18:18.922Z,61.80
2023-01-30T04:20:58.147Z,61.40
2023-01-30T04:23:34.131Z,55.20
2023-01-30T04:26:03.190Z,50.90
2023-01-30T04:28:30.295Z,56.13
2023-01-30T04:30:57.257Z,49.33
2023-01-30T04:33:40.550Z,48.65
2023-01-30T04:36:10.140Z,45.70
2023-01-30T04:38:37.499Z,49.58
2023-01-30T04:41:05.321Z,59.70
2023-01-30T04:43:34.740Z,71.10
2023-01-30T04:46:20.506Z,77.18
2023-01-30T04:48:47.199Z,69.10
2023-01-30T04:51:15.185Z,56.85
2023-01-30T04:53:42.124Z,55.72
2023-01-30T04:56:09.337Z,48.20
2023-01-30T04:58:36.109Z,47.25
2023-01-30T05:01:21.689Z,42.03
2023-01-30T05:03:54.990Z,47.67
2023-01-30T05:06:22.875Z,42.50
2023-01-30T05:08:50.480Z,56.25
2023-01-30T05:11:17.221Z,49.03
2023-01-30T05:13:44.122Z,45.17
2023-01-30T05:16:12.367Z,48.75
2023-01-30T05:18:39.395Z,44.38
2023-01-30T05:21:32.600Z,46.33
2023-01-30T05:23:59.298Z,53.65
2023-01-30T05:26:26.036Z,47.08
2023-01-30T05:28:57.319Z,60.72
2023-01-30T05:31:24.884Z,60.83
2023-01-30T05:33:52.404Z,100.63
2023-01-30T05:36:21.346Z,63.88
2023-01-30T05:38:48.051Z,67.57
2023-01-30T05:41:16.990Z,64.13
2023-01-30T05:43:43.971Z,65.60
2023-01-30T05:46:12.352Z,70.45
2023-01-30T05:48:39.258Z,70.20
2023-01-30T05:51:06.100Z,65.38
2023-01-30T05:53:37.106Z,57.95
2023-01-30T05:56:05.321Z,61.35
2023-01-30T05:58:32.825Z,52.50
2023-01-30T06:01:05.175Z,53.60
2023-01-30T06:03:32.176Z,54.75
2023-01-30T06:05:58.848Z,51.05
2023-01-30T06:08:25.677Z,41.83
2023-01-30T06:10:53.170Z,36.17
2023-01-30T06:13:19.822Z,35.78
2023-01-30T06:15:47.399Z,37.22
2023-01-30T06:18:14.091Z,36.58
2023-01-30T06:20:40.739Z,38.80
2023-01-30T06:23:07.493Z,45.25
2023-01-30T06:25:34.178Z,39.72
2023-01-30T06:28:00.798Z,39.42
2023-01-30T06:30:27.549Z,37.63
2023-01-30T06:32:54.224Z,35.65
2023-01-30T06:35:21.134Z,32.13
2023-01-30T06:37:48.011Z,40.38
2023-01-30T06:40:14.794Z,56.75
2023-01-30T06:42:48.976Z,36.38
2023-01-30T06:45:18.033Z,33.40
2023-01-30T06:47:49.533Z,28.17
2023-01-30T06:50:18.107Z,35.03
2023-01-30T06:52:49.440Z,35.78
2023-01-30T06:55:18.629Z,42.67
2023-01-30T06:57:46.138Z,47.17
2023-01-30T07:00:15.418Z,33.05
2023-01-30T07:02:42.391Z,41.60
2023-01-30T07:05:10.142Z,47.65
2023-01-30T07:07:37.801Z,40.35
2023-01-30T07:10:08.794Z,42.40
2023-01-30T07:12:36.420Z,42.25
2023-01-30T07:15:05.129Z,41.60
2023-01-30T07:17:32.039Z,46.15
2023-01-30T07:19:59.032Z,46.30
2023-01-30T07:22:25.899Z,42.08
2023-01-30T07:24:52.534Z,40.22
2023-01-30T07:27:19.291Z,42.20
2023-01-30T07:29:46.011Z,38.83
2023-01-30T07:32:19.038Z,37.00
2023-01-30T07:34:49.086Z,35.17
2023-01-30T07:37:15.911Z,35.97
2023-01-30T07:39:42.717Z,31.30
2023-01-30T07:42:09.620Z,34.35
2023-01-30T07:44:36.448Z,33.42
2023-01-30T07:47:03.392Z,39.67
2023-01-30T07:49:30.361Z,39.80
2023-01-30T07:51:57.062Z,35.67
2023-01-30T07:54:23.853Z,40.22
2023-01-30T07:56:50.520Z,28.45
2023-01-30T07:59:17.161Z,32.53
2023-01-30T08:04:10.838Z,35.95
2023-01-30T08:06:39.483Z,36.05
2023-01-30T08:09:07.156Z,36.13
2023-01-30T08:11:34.709Z,31.20
2023-01-30T08:14:01.561Z,32.53
2023-01-30T08:16:28.388Z,52.28
2023-01-30T08:18:55.119Z,44.08
2023-01-30T08:23:48.538Z,41.60
2023-01-30T08:26:15.315Z,48.78
2023-01-30T08:28:42.511Z,59.35
2023-01-30T08:31:10.737Z,48.00
2023-01-30T08:33:37.668Z,51.03
2023-01-30T08:36:04.941Z,49.17
2023-01-30T08:38:31.696Z,46.38
2023-01-30T08:40:59.368Z,47.65
2023-01-30T08:43:26.203Z,46.90
2023-01-30T08:45:57.178Z,51.33
2023-01-30T08:48:24.688Z,46.42
2023-01-30T08:50:53.378Z,47.78
2023-01-30T08:53:21.127Z,44.30
2023-01-30T08:55:51.468Z,41.53
2023-01-30T08:58:19.839Z,46.17
2023-01-30T09:00:47.811Z,45.35
2023-01-30T09:03:16.143Z,40.20
2023-01-30T09:05:43.569Z,41.88
2023-01-30T09:08:10.578Z,40.42
2023-01-30T09:10:37.726Z,40.28
2023-01-30T09:13:05.615Z,47.08
2023-01-30T09:15:33.023Z,40.97
2023-01-30T09:17:59.921Z,39.80
2023-01-30T09:20:26.953Z,36.10
2023-01-30T09:22:54.001Z,41.67
2023-01-30T09:25:20.933Z,41.55
2023-01-30T09:27:50.783Z,46.35
2023-01-30T09:30:18.256Z,42.33
2023-01-30T09:32:45.895Z,44.35
2023-01-30T09:35:13.196Z,43.78
2023-01-30T09:37:50.115Z,43.42
2023-01-30T09:40:23.706Z,46.20
2023-01-30T09:43:21.431Z,43.28
2023-01-30T09:46:19.068Z,38.47
2023-01-30T09:49:21.065Z,41.13
2023-01-30T09:52:03.836Z,44.92
2023-01-30T09:54:35.328Z,36.58
2023-01-30T09:57:21.634Z,37.78
2023-01-30T10:00:02.181Z,38.70
2023-01-30T10:02:53.798Z,36.63
2023-01-30T10:05:21.668Z,35.88
2023-01-30T10:08:01.180Z,34.40
2023-01-30T10:10:31.268Z,40.00
2023-01-30T10:13:28.807Z,35.83
2023-01-30T10:16:05.192Z,35.85
2023-01-30T10:18:47.429Z,33.33
2023-01-30T10:21:31.927Z,37.38
2023-01-30T10:24:18.223Z,40.20
2023-01-30T10:26:45.829Z,36.50
2023-01-30T10:29:18.108Z,38.92
2023-01-30T10:31:58.785Z,38.35
2023-01-30T10:34:28.235Z,40.20
2023-01-30T10:37:08.497Z,34.63
2023-01-30T10:39:54.191Z,33.55
2023-01-30T10:42:44.299Z,36.22
2023-01-30T10:45:21.184Z,31.98
2023-01-30T10:48:16.552Z,30.23
2023-01-30T10:51:03.380Z,33.80
2023-01-30T10:53:46.786Z,36.38
2023-01-30T10:56:20.593Z,33.67
2023-01-30T10:59:29.202Z,31.75
2023-01-30T11:02:07.165Z,36.17
2023-01-30T11:04:44.516Z,29.45
2023-01-30T11:09:48.029Z,31.63
2023-01-30T11:12:15.064Z,25.45
2023-01-30T11:15:09.100Z,21.50
2023-01-30T11:17:45.423Z,23.40
2023-01-30T11:20:19.254Z,30.88
2023-01-30T11:23:22.460Z,23.00
2023-01-30T11:26:10.572Z,30.05
2023-01-30T11:28:43.906Z,28.92
2023-01-30T11:31:40.034Z,24.88
2023-01-30T11:34:17.552Z,22.80
2023-01-30T11:36:47.190Z,19.60
2023-01-30T11:39:18.767Z,17.67
2023-01-30T11:41:58.437Z,17.73
2023-01-30T11:44:37.097Z,20.23
2023-01-30T11:47:25.424Z,28.38
2023-01-30T11:50:01.451Z,16.95
2023-01-30T11:52:43.192Z,18.98
2023-01-30T11:55:14.881Z,16.83
2023-01-30T11:57:44.541Z,16.10
2023-01-30T12:00:23.943Z,16.60
2023-01-30T12:02:54.600Z,15.38
2023-01-30T12:05:32.160Z,14.70
2023-01-30T12:10:46.251Z,10.77
2023-01-30T12:13:29.518Z,12.50
2023-01-30T12:16:11.725Z,10.57
2023-01-30T12:18:48.425Z,10.25
2023-01-30T12:21:33.245Z,11.63
2023-01-30T12:24:12.532Z,7.97
2023-01-30T12:26:46.030Z,9.05
2023-01-30T12:29:24.888Z,6.38
2023-01-30T12:32:17.187Z,5.22
2023-01-30T12:34:45.516Z,8.68
2023-01-30T12:37:30.770Z,8.93
2023-01-30T12:40:15.956Z,12.77
2023-01-30T12:43:18.051Z,9.93
2023-01-30T12:45:47.699Z,12.10
2023-01-30T12:48:31.301Z,10.82
2023-01-30T12:51:13.690Z,10.23
2023-01-30T12:54:02.024Z,10.05
2023-01-30T12:56:40.564Z,12.57
2023-01-30T12:59:28.687Z,13.82
2023-01-30T13:02:28.671Z,16.70
2023-01-30T13:05:39.357Z,13.77
2023-01-30T13:08:25.144Z,12.07
2023-01-30T13:11:16.470Z,12.73
2023-01-30T13:13:52.163Z,13.02
2023-01-30T13:16:36.550Z,10.48
2023-01-30T13:19:19.253Z,12.43
2023-01-30T13:22:08.881Z,9.48
2023-01-30T13:24:50.693Z,9.88
2023-01-30T13:27:20.569Z,12.10
2023-01-30T13:29:48.891Z,7.57
2023-01-30T13:32:37.188Z,11.57
2023-01-30T13:35:13.496Z,8.23
2023-01-30T13:37:40.552Z,10.45
2023-01-30T13:40:21.509Z,9.02
2023-01-30T13:43:14.044Z,9.63
2023-01-30T13:45:45.071Z,8.75
2023-01-30T13:48:28.434Z,9.15
2023-01-30T13:51:34.148Z,11.95
2023-01-30T13:54:06.479Z,10.25
2023-01-30T13:56:45.092Z,6.13
2023-01-30T13:59:21.685Z,8.95
2023-01-30T14:02:03.665Z,8.07
2023-01-30T14:04:30.532Z,9.18
2023-01-30T14:09:37.239Z,7.38
2023-01-30T14:12:06.600Z,9.70
2023-01-30T14:14:40.628Z,6.53
2023-01-30T14:17:16.396Z,6.30
2023-01-30T14:20:12.203Z,9.05
2023-01-30T14:22:52.248Z,7.75
2023-01-30T14:25:25.315Z,7.85
2023-01-30T14:27:54.823Z,7.43
2023-01-30T14:30:50.603Z,9.13
2023-01-30T14:33:23.218Z,8.40
2023-01-30T14:36:01.920Z,7.45
2023-01-30T14:38:30.527Z,8.18
2023-01-30T14:41:00.113Z,10.07
2023-01-30T14:43:42.040Z,8.10
2023-01-30T14:46:31.855Z,8.57
2023-01-30T14:49:19.093Z,10.25
2023-01-30T14:51:47.826Z,10.35
2023-01-30T14:54:14.546Z,8.57
2023-01-30T14:56:41.450Z,9.20
2023-01-30T14:59:17.259Z,7.80
2023-01-30T15:01:57.644Z,9.27
2023-01-30T15:04:27.346Z,10.80
2023-01-30T15:06:55.630Z,8.90
2023-01-30T15:09:27.190Z,9.15
2023-01-30T15:12:12.133Z,10.82
2023-01-30T15:14:53.981Z,10.80
2023-01-30T15:17:36.275Z,8.35
2023-01-30T15:20:32.341Z,6.88
2023-01-30T15:23:28.617Z,7.18
2023-01-30T15:26:13.753Z,8.02
2023-01-30T15:28:56.826Z,7.22
2023-01-30T15:31:24.023Z,8.63
2023-01-30T15:33:56.771Z,8.48
2023-01-30T15:36:34.118Z,7.05
2023-01-30T15:41:40.445Z,9.10
2023-01-30T15:44:14.124Z,8.02
2023-01-30T15:47:15.138Z,7.80
2023-01-30T15:49:51.749Z,6.03
2023-01-30T15:52:21.039Z,6.85
2023-01-30T15:54:53.206Z,6.35
2023-01-30T15:57:33.982Z,8.10
2023-01-30T16:00:01.977Z,5.88
2023-01-30T16:02:32.438Z,7.68
2023-01-30T16:05:13.261Z,5.50
2023-01-30T16:07:40.143Z,6.80
2023-01-30T16:10:22.204Z,5.57
2023-01-30T16:12:50.724Z,9.45
2023-01-30T16:15:26.028Z,5.13
2023-01-30T16:18:05.820Z,7.45
2023-01-30T16:20:55.272Z,6.20
2023-01-30T16:23:52.374Z,5.47
2023-01-30T16:26:21.811Z,5.50
2023-01-30T16:28:50.763Z,5.78
2023-01-30T16:31:18.684Z,6.88
2023-01-30T16:33:52.498Z,3.90
2023-01-30T16:36:22.348Z,5.30
2023-01-30T16:38:54.413Z,5.90
2023-01-30T16:41:42.738Z,3.90
2023-01-30T16:44:26.958Z,5.28
2023-01-30T16:46:59.766Z,5.53
2023-01-30T16:49:39.022Z,6.28
2023-01-30T16:52:23.492Z,6.55
2023-01-30T16:54:55.958Z,14.60
2023-01-30T16:57:36.687Z,86.28
2023-01-30T17:00:20.327Z,24.08
2023-01-30T17:03:29.692Z,9.07
2023-01-30T17:08:30.547Z,5.85
2023-01-30T17:11:01.643Z,15.88
2023-01-30T17:13:36.228Z,6.40
2023-01-30T17:16:21.698Z,33.72
2023-01-30T17:18:49.705Z,8.68
2023-01-30T17:21:17.228Z,13.75
2023-01-30T17:23:50.571Z,11.35
2023-01-30T17:26:17.817Z,10.35
2023-01-30T17:28:44.584Z,12.73
2023-01-30T17:33:39.099Z,9.65
2023-01-30T17:36:15.471Z,16.83
2023-01-30T17:38:42.251Z,10.50
2023-01-30T17:43:41.960Z,15.45
2023-01-30T17:46:09.137Z,17.77
2023-01-30T17:48:35.840Z,21.15
2023-01-30T17:53:29.099Z,74.88
2023-01-30T17:55:55.776Z,51.30
2023-01-30T18:00:49.615Z,37.38
2023-01-30T18:03:16.257Z,22.80
2023-01-30T18:05:43.044Z,17.90
2023-01-30T18:08:09.702Z,15.38
2023-01-30T18:13:02.983Z,18.10
2023-01-30T18:15:29.656Z,16.98
2023-01-30T18:20:23.270Z,15.25
2023-01-30T18:25:17.352Z,16.92
2023-01-30T18:27:47.225Z,17.55
2023-01-30T18:30:17.428Z,20.67
2023-01-30T18:32:52.485Z,14.30
2023-01-30T18:35:20.324Z,18.25
2023-01-30T18:37:47.250Z,18.27
2023-01-30T18:40:15.209Z,19.73
2023-01-30T18:42:42.027Z,14.73
2023-01-30T18:45:09.209Z,18.13
2023-01-30T18:47:35.930Z,13.60
2023-01-30T18:52:29.440Z,15.95
2023-01-30T18:57:22.834Z,17.65
2023-01-30T19:02:16.223Z,20.80
2023-01-30T19:04:42.977Z,18.95
2023-01-30T19:09:37.987Z,25.67
2023-01-30T19:14:50.360Z,18.60
2023-01-30T19:19:44.006Z,20.27
2023-01-30T19:22:10.710Z,22.45
2023-01-30T19:27:09.765Z,20.88
2023-01-30T19:29:36.484Z,21.27
2023-01-30T19:34:30.303Z,20.20
2023-01-30T19:39:23.758Z,21.42
2023-01-30T19:44:17.059Z,19.48
2023-01-30T19:49:11.055Z,16.05
2023-01-30T19:51:37.766Z,18.60
2023-01-30T19:56:34.073Z,17.92
2023-01-30T19:59:01.439Z,15.35
2023-01-30T20:01:32.694Z,15.60
2023-01-30T20:04:01.764Z,15.73
2023-01-30T20:06:31.530Z,14.38
2023-01-30T20:09:04.720Z,14.32
2023-01-30T20:11:33.599Z,17.20
2023-01-30T20:14:01.909Z,19.15
2023-01-30T20:16:31.048Z,15.30
2023-01-30T20:19:00.117Z,13.40
2023-01-30T20:21:28.247Z,14.95
2023-01-30T20:23:55.358Z,14.05
2023-01-30T20:26:36.420Z,14.52
2023-01-30T20:29:04.280Z,16.17
2023-01-30T20:31:32.290Z,14.50
2023-01-30T20:34:01.775Z,15.00
2023-01-30T20:36:28.488Z,15.13
2023-01-30T20:41:26.267Z,19.67
2023-01-30T20:43:57.065Z,18.45
2023-01-30T20:46:34.483Z,15.40
2023-01-30T20:49:01.437Z,16.52
2023-01-30T20:51:30.864Z,13.88
2023-01-30T20:53:59.943Z,17.00
2023-01-30T20:56:31.025Z,16.27
2023-01-30T20:58:57.882Z,16.38
2023-01-30T21:01:24.968Z,16.13
2023-01-30T21:03:53.410Z,18.77
2023-01-30T21:06:41.196Z,16.00
2023-01-30T21:09:21.453Z,19.75
2023-01-30T21:11:49.435Z,19.27
2023-01-30T21:14:16.840Z,18.05
2023-01-30T21:16:43.931Z,16.55
2023-01-30T21:19:15.032Z,17.10
2023-01-30T21:21:54.115Z,17.17
2023-01-30T21:24:27.022Z,19.60
2023-01-30T21:26:54.741Z,20.42
2023-01-30T21:29:24.445Z,20.48
2023-01-30T21:31:51.943Z,16.33
2023-01-30T21:34:18.725Z,19.52
2023-01-30T21:39:50.549Z,19.15
2023-01-30T21:42:49.644Z,19.73
2023-01-30T21:45:16.629Z,20.85
2023-01-30T21:47:43.315Z,21.33
2023-01-30T21:52:36.988Z,19.73
2023-01-30T21:55:03.921Z,24.77
2023-01-30T21:57:30.679Z,21.63
2023-01-30T22:02:24.066Z,23.23
2023-01-30T22:07:17.452Z,24.00
2023-01-30T22:09:44.151Z,25.17
2023-01-30T22:14:37.673Z,20.88
2023-01-30T22:19:35.176Z,24.27
2023-01-30T22:22:02.661Z,22.45
2023-01-30T22:24:29.532Z,20.42
2023-01-30T22:26:56.316Z,22.42
2023-01-30T22:31:49.692Z,19.25
2023-01-30T22:36:42.971Z,20.88
2023-01-30T22:41:36.523Z,23.25
2023-01-30T22:44:07.424Z,20.50
2023-01-30T22:46:37.394Z,19.40
2023-01-30T22:49:06.461Z,23.73
2023-01-30T22:51:38.581Z,24.25
2023-01-30T22:54:09.026Z,18.55
2023-01-30T22:56:39.565Z,18.92
2023-01-30T22:59:07.511Z,17.98
2023-01-30T23:01:39.513Z,19.13
2023-01-30T23:04:10.585Z,21.38
2023-01-30T23:06:37.322Z,23.63
2023-01-30T23:11:43.564Z,18.90
2023-01-30T23:14:16.086Z,20.55
2023-01-30T23:16:44.572Z,20.45
2023-01-30T23:19:13.474Z,22.85
2023-01-30T23:21:45.472Z,21.85
2023-01-30T23:24:18.162Z,23.00
2023-01-30T23:26:47.433Z,20.95
2023-01-30T23:29:17.203Z,21.67
2023-01-30T23:31:45.056Z,21.15
2023-01-30T23:34:14.539Z,23.67
2023-01-30T23:36:41.361Z,23.10
2023-01-30T23:39:08.465Z,23.73
2023-01-30T23:41:36.613Z,25.17
2023-01-30T23:44:04.173Z,26.17
2023-01-30T23:46:39.990Z,25.30
2023-01-30T23:49:09.683Z,24.55
2023-01-30T23:51:38.716Z,22.98
2023-01-30T23:54:06.336Z,20.90
2023-01-30T23:56:35.642Z,25.10
2023-01-30T23:59:03.108Z,24.90
